Lengby, Minnesota
Current Conditions -  °F | °C
As of 8:35 AM on Monday 20 Oct 2014 (Local Time) from KFSE Reporting Station
Haze Haze  
Wind Chill: 30°   Ceiling: 100
Heat Index: 30°   Visibility: 1mi
Dew Point: 28°   Wind: 0mph
Humidity: 93%   Direction: NA
Pressure: 30.03"   Gusts: NA
Location:  47.52°N, 95.64°W
Report Text: KFSE 201335Z AUTO 00000KT 1SM BR OVC001 M01/M02 A3003 RMK AO2
Loading
Personal Weather Stations






























Interactive Weather Map
Tropical Storm Tracking
New forecast layout! Learn more

10-Day Weather Forecast

Advertisements
Track Severe Weather on mobile